Terminal Aerodrome Forecast
Issued by NWS

Home | Current Version | Previous Version | Text Only | Print | Product List | Glossary On
Versions: 1 2 3 4 5 6 7 8 9 10 11 12 13 14 15 16 17 18 19 20 21 22 23 24 25 26 27 28 29 30 31 32 33 34 35 36
000
FTUS41 KRNK 180529
TAFBCB
TAF
KBCB 180529Z 1806/1906 00000KT P6SM SCT035
     FM180700 VRB03KT 5SM BR FEW200
      TEMPO 1809/1812 2SM BR BKN050
     FM181300 26005KT P6SM SCT050
     FM181800 27006KT P6SM VCTS BKN050CB
      TEMPO 1818/1820 3SM SHRA BR BKN030
     FM182300 00000KT P6SM SCT050=

USA.gov is the U.S. government's official web portal to all federal, state and local government web resources and services.